Time;durP1;ratioP1;P1;durP2;ratioP2;P2;SDS_P1;SDS_P2;PMS_P1;PMS_P2;Temp;Humidity;BMP_temperature;BMP_pressure;BME280_temperature;BME280_humidity;BME280_pressure;Samples;Min_cycle;Max_cycle;Signal;HPM_P1;HPM_P2
2023/03/22 00:01:11;;;;;;;;;7.50;6.75;;;;;11.70;70.69;99364.53;5117099;28;9509;-60
2023/03/22 00:03:39;;;;;;;;;6.00;6.00;;;;;11.68;70.56;99371.81;5116108;28;8897;-60
2023/03/22 00:06:07;;;;;;;;;6.50;6.00;;;;;11.65;70.91;99360.59;5117100;28;8856;-60
2023/03/22 00:08:35;;;;;;;;;10.00;7.00;;;;;11.62;70.98;99364.41;5116445;28;8823;-61
2023/03/22 00:11:03;;;;;;;;;7.00;6.75;;;;;11.62;71.53;99364.41;5116919;28;9559;-59
2023/03/22 00:13:31;;;;;;;;;3.25;3.00;;;;;11.66;70.95;99354.28;5116703;28;8934;-62
2023/03/22 00:16:02;;;;;;;;;10.00;9.50;;;;;11.70;70.78;99363.69;5116748;28;8832;-59
2023/03/22 00:18:29;;;;;;;;;7.00;6.50;;;;;11.72;70.93;99359.91;5116744;28;8847;-62
2023/03/22 00:20:57;;;;;;;;;6.75;5.50;;;;;11.73;70.95;99353.56;5116608;28;8835;-59
2023/03/22 00:23:25;;;;;;;;;8.00;6.75;;;;;11.75;70.67;99356.94;5116681;28;8812;-60
2023/03/22 00:25:53;;;;;;;;;8.00;7.00;;;;;11.76;71.13;99358.59;5116746;28;9540;-61
2023/03/22 00:28:20;;;;;;;;;7.75;7.75;;;;;11.77;70.51;99354.13;5115342;28;8883;-61
2023/03/22 00:30:48;;;;;;;;;9.00;7.00;;;;;11.74;70.90;99343.75;5115478;28;8839;-60
2023/03/22 00:33:16;;;;;;;;;9.50;7.00;;;;;11.70;70.65;99347.69;5116214;28;8830;-60
2023/03/22 00:35:44;;;;;;;;;3.50;3.00;;;;;11.65;70.43;99345.44;5116418;28;8824;-62
2023/03/22 00:38:12;;;;;;;;;8.50;7.00;;;;;11.62;70.95;99340.41;5115304;28;9512;-59
2023/03/22 00:40:41;;;;;;;;;7.00;7.00;;;;;11.61;70.71;99341.38;5116503;28;8855;-59
2023/03/22 00:43:08;;;;;;;;;6.25;4.50;;;;;11.59;70.93;99340.69;5117072;28;8828;-62
2023/03/22 00:45:38;;;;;;;;;6.25;6.25;;;;;11.55;71.27;99333.94;5116389;28;8816;-60
2023/03/22 00:48:06;;;;;;;;;6.25;6.00;;;;;11.53;71.45;99345.72;5116314;28;8816;-62
2023/03/22 00:50:34;;;;;;;;;9.00;9.00;;;;;11.53;71.38;99335.06;5116537;28;8829;-60
2023/03/22 00:53:02;;;;;;;;;6.00;6.00;;;;;11.55;71.37;99333.94;5116139;28;8847;-61
2023/03/22 00:55:30;;;;;;;;;12.00;7.00;;;;;11.57;71.07;99331.97;5116310;28;8816;-60
2023/03/22 00:57:57;;;;;;;;;6.75;5.50;;;;;11.59;70.99;99324.69;5115935;28;9478;-59
2023/03/22 01:00:26;;;;;;;;;8.00;6.50;;;;;11.57;71.25;99321.28;5116631;28;8832;-61
2023/03/22 01:02:58;;;;;;;;;9.50;9.00;;;;;11.60;71.55;99315.69;5115917;28;9733;-61
2023/03/22 01:05:27;;;;;;;;;10.00;10.00;;;;;11.64;71.19;99311.78;5116315;28;8808;-60
2023/03/22 01:07:55;;;;;;;;;6.50;6.25;;;;;11.65;71.10;99312.59;5115357;28;8812;-60
2023/03/22 01:10:23;;;;;;;;;12.25;11.50;;;;;11.68;70.94;99305.16;5116185;28;8843;-60
2023/03/22 01:12:51;;;;;;;;;7.50;6.25;;;;;11.69;71.46;99298.81;5115925;28;8866;-61
2023/03/22 01:15:19;;;;;;;;;3.00;3.00;;;;;11.70;71.08;99289.88;5116167;28;8830;-61
2023/03/22 01:17:46;;;;;;;;;9.50;9.50;;;;;11.71;71.42;99294.22;5116163;28;8826;-61
2023/03/22 01:20:14;;;;;;;;;4.00;3.50;;;;;11.73;71.29;99291.38;5116203;28;8862;-60
2023/03/22 01:22:42;;;;;;;;;8.00;7.00;;;;;11.73;71.00;99286.88;5116125;28;8858;-60
2023/03/22 01:25:10;;;;;;;;;10.25;8.50;;;;;11.73;70.95;99289.56;5116123;28;8824;-61
2023/03/22 01:27:37;;;;;;;;;7.00;6.25;;;;;11.74;71.41;99285.09;5116203;28;8828;-61
2023/03/22 01:30:05;;;;;;;;;4.50;3.75;;;;;11.74;71.36;99291.25;5116002;28;8836;-58
2023/03/22 01:32:33;;;;;;;;;7.00;6.00;;;;;11.74;71.23;99283.22;5116222;28;8820;-60
2023/03/22 01:35:00;;;;;;;;;10.25;7.50;;;;;11.74;70.87;99285.91;5115865;28;8852;-59
2023/03/22 01:37:28;;;;;;;;;8.00;8.00;;;;;11.75;71.41;99282.25;5115882;28;8906;-60
2023/03/22 01:39:56;;;;;;;;;8.50;8.00;;;;;11.73;71.49;99283.38;5115628;28;8816;-62
2023/03/22 01:42:23;;;;;;;;;9.00;8.00;;;;;11.71;71.14;99286.22;5115929;28;8831;-60
2023/03/22 01:44:51;;;;;;;;;9.25;8.00;;;;;11.68;71.36;99277.66;5119204;28;8855;-61
2023/03/22 01:47:20;;;;;;;;;9.25;7.50;;;;;11.65;72.01;99284.13;5119748;28;8820;-61
2023/03/22 01:49:48;;;;;;;;;9.00;9.00;;;;;11.60;71.35;99275.69;5119802;28;8828;-62
2023/03/22 01:52:15;;;;;;;;;2.50;2.50;;;;;11.56;71.68;99276.94;5119506;28;8860;-59
2023/03/22 01:54:43;;;;;;;;;12.25;11.50;;;;;11.48;71.85;99274.16;5119744;28;9574;-60
2023/03/22 01:57:11;;;;;;;;;7.00;7.00;;;;;11.39;72.54;99267.00;5119549;28;8848;-60
2023/03/22 01:59:38;;;;;;;;;9.00;7.00;;;;;11.34;72.42;99263.09;5119126;28;8840;-59
2023/03/22 02:02:06;;;;;;;;;10.00;9.50;;;;;11.30;72.12;99269.72;5119294;28;9489;-61
2023/03/22 02:04:34;;;;;;;;;10.00;7.50;;;;;11.24;72.14;99271.09;5119000;28;8819;-61
2023/03/22 02:07:02;;;;;;;;;8.50;6.75;;;;;11.21;72.57;99262.59;5119431;28;8851;-61
2023/03/22 02:09:30;;;;;;;;;11.25;8.25;;;;;11.17;72.89;99262.03;5118441;28;8852;-62
2023/03/22 02:11:57;;;;;;;;;8.50;8.00;;;;;11.16;72.99;99260.31;5119259;28;8906;-61
2023/03/22 02:14:25;;;;;;;;;9.50;9.00;;;;;11.17;72.97;99259.38;5119251;28;8820;-59
2023/03/22 02:16:53;;;;;;;;;12.00;9.50;;;;;11.18;72.96;99252.19;5119112;28;8853;-60
2023/03/22 02:19:21;;;;;;;;;4.00;3.00;;;;;11.19;73.20;99246.72;5118713;28;8859;-61
2023/03/22 02:21:49;;;;;;;;;13.50;12.75;;;;;11.23;72.47;99244.63;5118666;28;8804;-59
2023/03/22 02:24:16;;;;;;;;;8.50;7.00;;;;;11.21;72.44;99239.44;5119164;28;8832;-60
2023/03/22 02:26:45;;;;;;;;;10.00;9.50;;;;;11.21;72.38;99238.59;5119009;28;8820;-59
2023/03/22 02:29:13;;;;;;;;;8.00;7.50;;;;;11.22;72.88;99243.75;5118732;28;9583;-61
2023/03/22 02:31:41;;;;;;;;;8.50;7.00;;;;;11.23;72.49;99242.78;5118500;28;8838;-61
2023/03/22 02:34:09;;;;;;;;;10.00;9.50;;;;;11.26;72.26;99236.31;5118935;28;8811;-59
2023/03/22 02:36:36;;;;;;;;;11.50;11.50;;;;;11.26;72.21;99237.19;5119066;28;8897;-58
2023/03/22 02:39:05;;;;;;;;;6.25;6.00;;;;;11.26;72.65;99221.19;5118666;28;8858;-62
2023/03/22 02:41:33;;;;;;;;;10.00;10.00;;;;;11.25;73.01;99227.50;5118523;28;8836;-60
2023/03/22 02:44:00;;;;;;;;;9.00;6.50;;;;;11.26;73.19;99228.31;5119318;28;8913;-60
2023/03/22 02:46:29;;;;;;;;;8.50;8.50;;;;;11.25;73.35;99219.50;5118767;28;8853;-60
2023/03/22 02:48:57;;;;;;;;;9.25;9.25;;;;;11.23;72.59;99221.47;5118389;28;8821;-60
2023/03/22 02:51:25;;;;;;;;;7.00;6.50;;;;;11.16;72.85;99227.53;5118630;28;8859;-58
2023/03/22 02:53:53;;;;;;;;;8.75;6.50;;;;;11.08;73.11;99222.06;5118596;28;8816;-61
2023/03/22 02:56:20;;;;;;;;;10.50;9.75;;;;;11.05;73.30;99223.19;5117965;28;8838;-60
2023/03/22 02:58:48;;;;;;;;;6.50;6.50;;;;;11.05;73.16;99217.84;5117804;28;8838;-59
2023/03/22 03:01:16;;;;;;;;;6.75;6.75;;;;;11.08;73.05;99216.75;5118417;28;8846;-61
2023/03/22 03:03:46;;;;;;;;;12.75;11.50;;;;;11.10;72.69;99210.28;5118418;28;8862;-61
2023/03/22 03:06:14;;;;;;;;;10.00;10.00;;;;;11.12;72.90;99207.47;5118457;28;8828;-61
2023/03/22 03:08:42;;;;;;;;;8.50;6.50;;;;;11.12;73.00;99196.78;5118229;28;9485;-60
2023/03/22 03:11:10;;;;;;;;;9.25;9.25;;;;;11.11;73.11;99206.63;5118203;28;8844;-62
2023/03/22 03:13:38;;;;;;;;;3.00;3.00;;;;;11.11;72.84;99195.13;5118318;28;8830;-62
2023/03/22 03:16:07;;;;;;;;;12.00;9.75;;;;;11.07;73.11;99193.75;5118004;28;8839;-60
2023/03/22 03:18:34;;;;;;;;;11.00;9.75;;;;;11.02;72.83;99194.19;5117379;28;8931;-61
2023/03/22 03:21:02;;;;;;;;;8.50;7.50;;;;;10.96;73.99;99186.75;5117804;28;8851;-60
2023/03/22 03:23:30;;;;;;;;;9.00;8.00;;;;;10.95;74.04;99182.41;5117616;28;8846;-62
2023/03/22 03:25:57;;;;;;;;;12.75;10.50;;;;;10.91;73.64;99178.34;5117833;28;8839;-61
2023/03/22 03:28:29;;;;;;;;;10.50;9.50;;;;;10.90;73.59;99174.00;5117325;28;8896;-61
2023/03/22 03:30:56;;;;;;;;;9.75;9.00;;;;;10.91;74.16;99182.84;5117929;28;8831;-61
2023/03/22 03:33:24;;;;;;;;;9.00;7.00;;;;;10.87;73.35;99176.97;5117625;28;8923;-59
2023/03/22 03:35:53;;;;;;;;;13.50;11.00;;;;;10.84;74.20;99176.41;5116473;28;8835;-61
2023/03/22 03:38:21;;;;;;;;;7.50;6.75;;;;;10.79;74.15;99173.31;5115721;28;8820;-61
2023/03/22 03:40:48;;;;;;;;;11.50;10.00;;;;;10.75;74.12;99171.91;5116275;28;8844;-61
2023/03/22 03:43:16;;;;;;;;;10.25;9.50;;;;;10.74;74.71;99179.06;5117304;28;8832;-59
2023/03/22 03:45:44;;;;;;;;;1.00;1.00;;;;;10.70;74.36;99175.00;5117795;28;8829;-60
2023/03/22 03:48:12;;;;;;;;;7.00;7.00;;;;;10.68;74.49;99179.63;5116926;28;8939;-62
2023/03/22 03:50:39;;;;;;;;;9.25;8.00;;;;;10.65;74.45;99176.41;5117542;28;8844;-59
2023/03/22 03:53:08;;;;;;;;;12.00;10.50;;;;;10.59;74.64;99171.63;5117248;28;8832;-61
2023/03/22 03:55:36;;;;;;;;;13.00;12.00;;;;;10.54;74.91;99168.59;5117186;28;8905;-60
2023/03/22 03:58:04;;;;;;;;;10.50;9.75;;;;;10.53;74.40;99174.84;5116828;28;8827;-62
2023/03/22 04:00:32;;;;;;;;;9.50;8.00;;;;;10.51;74.79;99172.38;5116875;28;8973;-61
2023/03/22 04:02:59;;;;;;;;;9.00;7.00;;;;;10.46;74.54;99171.09;5117056;28;9493;-62
2023/03/22 04:05:27;;;;;;;;;9.25;8.00;;;;;10.43;75.04;99174.03;5117405;28;8850;-62
2023/03/22 04:07:55;;;;;;;;;3.00;3.00;;;;;10.38;74.86;99166.47;5116374;28;8856;-60
2023/03/22 04:10:23;;;;;;;;;12.00;10.00;;;;;10.37;75.42;99172.78;5116943;28;8812;-62
2023/03/22 04:12:50;;;;;;;;;10.25;10.25;;;;;10.35;75.15;99179.22;5117191;28;8824;-59
2023/03/22 04:15:18;;;;;;;;;11.00;10.50;;;;;10.33;75.25;99175.84;5116885;28;8925;-65
2023/03/22 04:17:45;;;;;;;;;9.00;9.00;;;;;10.31;75.06;99172.50;5116926;28;8816;-62
2023/03/22 04:20:13;;;;;;;;;9.00;7.00;;;;;10.31;75.22;99176.00;5116616;28;8941;-62
2023/03/22 04:22:41;;;;;;;;;1.00;0.50;;;;;10.31;75.48;99181.31;5116259;28;8823;-61
2023/03/22 04:25:10;;;;;;;;;11.00;9.50;;;;;10.32;75.71;99175.00;5115915;28;8981;-62
2023/03/22 04:27:38;;;;;;;;;9.75;9.50;;;;;10.32;75.48;99171.53;5114751;28;8820;-61
2023/03/22 04:30:06;;;;;;;;;8.00;7.50;;;;;10.32;75.20;99164.34;5114708;28;8914;-59
2023/03/22 04:32:33;;;;;;;;;3.00;2.00;;;;;10.33;75.43;99158.06;5115119;28;8854;-61
2023/03/22 04:35:01;;;;;;;;;6.50;6.25;;;;;10.36;75.03;99152.47;5114942;28;8824;-60
2023/03/22 04:37:30;;;;;;;;;9.50;9.25;;;;;10.37;75.35;99154.16;5114587;28;8850;-61
2023/03/22 04:39:59;;;;;;;;;4.00;4.00;;;;;10.36;75.41;99160.44;5114223;28;8836;-61
2023/03/22 04:42:27;;;;;;;;;5.50;5.50;;;;;10.35;74.98;99147.28;5115160;28;8855;-59
2023/03/22 04:44:54;;;;;;;;;7.50;7.50;;;;;10.34;75.27;99154.44;5116236;28;8843;-62
2023/03/22 04:47:22;;;;;;;;;7.00;7.00;;;;;10.31;75.74;99152.03;5116099;28;8832;-61
2023/03/22 04:49:49;;;;;;;;;6.25;6.00;;;;;10.29;75.53;99156.66;5115381;28;9539;-62
2023/03/22 04:52:17;;;;;;;;;6.50;6.00;;;;;10.23;75.92;99149.25;5115612;28;8925;-60
2023/03/22 04:54:45;;;;;;;;;9.00;9.00;;;;;10.23;75.77;99161.72;5115884;28;8831;-61
2023/03/22 04:57:13;;;;;;;;;6.50;6.25;;;;;10.21;75.85;99167.16;5115676;28;8917;-61
2023/03/22 04:59:40;;;;;;;;;9.00;8.75;;;;;10.21;75.71;99172.50;5115583;28;8835;-62
2023/03/22 05:02:08;;;;;;;;;8.00;6.75;;;;;10.20;75.44;99169.97;5115777;28;8902;-61
2023/03/22 05:04:36;;;;;;;;;8.00;7.00;;;;;10.19;76.33;99161.16;5115818;28;9696;-62
2023/03/22 05:07:04;;;;;;;;;7.00;6.75;;;;;10.18;76.15;99159.44;5116153;28;8824;-61
2023/03/22 05:09:32;;;;;;;;;7.50;7.00;;;;;10.17;76.11;99162.28;5115821;28;8930;-61
2023/03/22 05:11:59;;;;;;;;;10.50;10.00;;;;;10.14;76.07;99158.06;5115832;28;8854;-62
2023/03/22 05:14:27;;;;;;;;;6.00;6.00;;;;;10.17;75.72;99147.13;5115473;28;8847;-61
2023/03/22 05:16:55;;;;;;;;;8.75;7.00;;;;;10.16;76.49;99145.44;5115124;28;8874;-61
2023/03/22 05:19:23;;;;;;;;;9.00;7.00;;;;;10.14;76.12;99147.41;5119319;28;8836;-61
2023/03/22 05:21:56;;;;;;;;;8.00;8.00;;;;;10.13;76.09;99137.75;5119061;28;8832;-62
2023/03/22 05:24:24;;;;;;;;;9.00;7.00;;;;;10.16;75.89;99147.28;5119507;28;9853;-59
2023/03/22 05:26:53;;;;;;;;;5.00;5.00;;;;;10.18;76.36;99146.13;5119415;28;8824;-61
2023/03/22 05:29:21;;;;;;;;;9.50;9.50;;;;;10.18;76.31;99156.78;5118528;28;8920;-62
2023/03/22 05:31:49;;;;;;;;;10.25;8.00;;;;;10.16;76.10;99153.44;5119603;28;8828;-59
2023/03/22 05:34:19;;;;;;;;;6.75;6.75;;;;;10.14;76.28;99150.06;5118703;28;8898;-61
2023/03/22 05:36:46;;;;;;;;;7.50;7.25;;;;;10.15;76.26;99167.72;5117920;28;8861;-61
2023/03/22 05:39:14;;;;;;;;;9.00;6.00;;;;;10.17;76.52;99149.78;5118375;28;8846;-59
2023/03/22 05:41:42;;;;;;;;;9.00;9.00;;;;;10.21;76.24;99143.22;5118236;28;8845;-60
2023/03/22 05:44:10;;;;;;;;;6.75;6.75;;;;;10.23;76.32;99141.25;5119082;28;8846;-59
2023/03/22 05:46:38;;;;;;;;;8.00;7.50;;;;;10.27;76.14;99145.34;5118013;28;8840;-59
2023/03/22 05:49:05;;;;;;;;;12.00;10.00;;;;;10.32;76.29;99145.72;5117631;28;8864;-59
2023/03/22 05:51:40;;;;;;;;;9.75;8.50;;;;;10.39;76.01;99140.72;5118038;28;8848;-59
2023/03/22 05:54:08;;;;;;;;;9.75;8.50;;;;;10.44;75.92;99141.97;5118144;28;8836;-59
2023/03/22 05:56:38;;;;;;;;;7.50;7.50;;;;;10.49;75.96;99134.41;5118539;28;8815;-59
2023/03/22 05:59:06;;;;;;;;;10.00;10.00;;;;;10.54;75.94;99142.78;5117786;28;8816;-59
2023/03/22 06:01:34;;;;;;;;;9.50;9.00;;;;;10.61;75.61;99140.41;5118155;28;8868;-59
2023/03/22 06:04:01;;;;;;;;;11.50;10.00;;;;;10.68;75.54;99137.03;5117984;28;8846;-59
2023/03/22 06:06:31;;;;;;;;;8.00;8.00;;;;;10.76;75.30;99147.81;5118418;28;8822;-60
2023/03/22 06:08:59;;;;;;;;;7.00;6.50;;;;;10.84;75.24;99145.25;5117785;28;8821;-60
2023/03/22 06:11:42;;;;;;;;;8.75;8.50;;;;;10.92;75.39;99129.41;5116563;28;8816;-60
2023/03/22 06:14:10;;;;;;;;;7.00;5.50;;;;;10.99;74.79;99141.16;5114527;28;9695;-60
2023/03/22 06:16:38;;;;;;;;;9.00;9.00;;;;;11.07;74.53;99148.44;5116025;28;8859;-59
2023/03/22 06:19:06;;;;;;;;;9.75;9.00;;;;;11.15;74.58;99128.06;5116845;28;8864;-59
2023/03/22 06:21:33;;;;;;;;;10.50;8.00;;;;;11.21;74.09;99127.50;5115982;28;8860;-59
2023/03/22 06:24:01;;;;;;;;;6.00;6.00;;;;;11.26;74.36;99143.91;5115530;28;8843;-61
2023/03/22 06:26:29;;;;;;;;;4.50;4.50;;;;;11.28;74.32;99127.75;5115539;28;8835;-62
2023/03/22 06:28:57;;;;;;;;;6.50;6.50;;;;;11.29;74.61;99127.59;5115861;28;8838;-61
2023/03/22 06:31:24;;;;;;;;;5.00;4.25;;;;;11.31;74.26;99133.63;5114861;28;8844;-60
2023/03/22 06:33:52;;;;;;;;;8.50;8.50;;;;;11.34;74.48;99125.34;5115871;28;8839;-61
2023/03/22 06:36:22;;;;;;;;;7.25;6.50;;;;;11.36;74.19;99128.69;5116682;28;8836;-62
2023/03/22 06:38:50;;;;;;;;;9.25;7.50;;;;;11.39;73.79;99119.56;5115837;28;8839;-61
2023/03/22 06:41:17;;;;;;;;;7.50;7.00;;;;;11.41;73.67;99118.44;5116050;28;8847;-60
2023/03/22 06:43:45;;;;;;;;;8.50;8.00;;;;;11.44;73.48;99120.81;5116636;28;8885;-61
2023/03/22 06:46:13;;;;;;;;;5.00;5.00;;;;;11.50;73.57;99112.22;5114102;28;8827;-58
2023/03/22 06:48:41;;;;;;;;;8.00;8.00;;;;;11.57;73.63;99115.97;5114834;28;8852;-59
2023/03/22 06:51:09;;;;;;;;;5.00;4.75;;;;;11.63;73.09;99114.56;5111948;28;9141;-61
2023/03/22 06:53:37;;;;;;;;;2.00;1.00;;;;;11.68;73.09;99113.13;5112701;28;8827;-61
2023/03/22 06:56:05;;;;;;;;;9.00;8.50;;;;;11.74;73.62;99119.72;5112138;28;8850;-61
2023/03/22 06:58:33;;;;;;;;;5.00;4.75;;;;;11.80;73.60;99119.09;5110829;28;8839;-59
2023/03/22 07:01:00;;;;;;;;;5.25;5.00;;;;;11.85;72.88;99119.50;5111104;28;9531;-61
2023/03/22 07:03:28;;;;;;;;;6.25;4.50;;;;;11.89;72.80;99127.03;5111589;28;8854;-59
2023/03/22 07:05:56;;;;;;;;;6.25;6.25;;;;;11.93;72.88;99120.44;5112202;28;8823;-61
2023/03/22 07:08:24;;;;;;;;;7.50;7.25;;;;;11.97;72.94;99116.44;5111490;28;8859;-61
2023/03/22 07:10:52;;;;;;;;;5.50;5.50;;;;;12.00;72.41;99118.84;5112709;28;8832;-58
2023/03/22 07:13:20;;;;;;;;;5.50;4.00;;;;;12.04;72.32;99117.53;5112369;28;8856;-60
2023/03/22 07:15:48;;;;;;;;;6.75;6.00;;;;;12.05;72.66;99103.19;5112223;28;8857;-61
2023/03/22 07:18:16;;;;;;;;;5.50;5.50;;;;;12.05;72.63;99104.03;5112365;28;8855;-61
2023/03/22 07:20:44;;;;;;;;;6.50;6.00;;;;;12.06;72.63;99111.06;5112138;28;8994;-61
2023/03/22 07:23:12;;;;;;;;;5.00;3.50;;;;;12.06;72.57;99108.38;5112779;28;8844;-62
2023/03/22 07:25:39;;;;;;;;;8.75;7.25;;;;;12.08;72.17;99105.56;5112955;28;8895;-62
2023/03/22 07:28:09;;;;;;;;;6.25;5.00;;;;;12.11;72.36;99107.94;5113483;28;8824;-60
2023/03/22 07:30:37;;;;;;;;;6.00;5.50;;;;;12.11;72.24;99102.59;5113245;28;8862;-61
2023/03/22 07:33:06;;;;;;;;;11.25;6.00;;;;;12.13;72.24;99084.59;5115540;28;8835;-60
2023/03/22 07:35:34;;;;;;;;;7.00;6.00;;;;;12.15;72.49;99095.97;5113333;28;9563;-60
2023/03/22 07:38:01;;;;;;;;;7.00;7.00;;;;;12.17;72.17;99091.31;5114687;28;8820;-61
2023/03/22 07:40:29;;;;;;;;;3.00;2.00;;;;;12.16;71.50;99086.97;5114588;28;8816;-60
2023/03/22 07:42:58;;;;;;;;;6.75;6.00;;;;;12.16;72.37;99089.63;5114584;28;8843;-60
2023/03/22 07:45:27;;;;;;;;;6.33;4.67;;;;;12.16;72.56;99090.47;5114381;28;8878;-60
2023/03/22 07:47:55;;;;;;;;;1.00;1.00;;;;;12.13;72.27;99087.25;5113711;28;8893;-60
2023/03/22 07:50:23;;;;;;;;;3.50;3.00;;;;;12.11;71.94;99079.41;5112841;28;8839;-61
2023/03/22 07:52:50;;;;;;;;;8.00;6.75;;;;;12.12;72.54;99088.25;5113677;28;8863;-60
2023/03/22 07:55:18;;;;;;;;;4.00;4.00;;;;;12.16;71.98;99087.78;5114237;28;9207;-59
2023/03/22 07:57:46;;;;;;;;;3.50;3.50;;;;;12.22;71.59;99081.00;5114572;28;8932;-60
2023/03/22 08:00:14;;;;;;;;;3.50;3.50;;;;;12.30;71.32;99081.09;5115353;28;9516;-60
2023/03/22 08:02:44;;;;;;;;;3.75;3.00;;;;;12.33;71.39;99080.78;5115296;28;8862;-58
2023/03/22 08:05:12;;;;;;;;;6.00;6.00;;;;;12.45;71.04;99079.56;5113412;28;8848;-59
2023/03/22 08:07:41;;;;;;;;;7.00;6.00;;;;;12.63;70.98;99086.53;5112359;28;8832;-61
2023/03/22 08:10:08;;;;;;;;;4.00;4.00;;;;;12.81;70.28;99075.78;5112115;28;8867;-59
2023/03/22 08:12:36;;;;;;;;;6.00;6.00;;;;;12.97;69.61;99065.22;5111567;28;8905;-60
2023/03/22 08:15:04;;;;;;;;;3.25;3.25;;;;;13.18;69.41;99069.19;5112293;28;8831;-59
2023/03/22 08:17:32;;;;;;;;;4.00;4.00;;;;;13.38;69.00;99075.13;5111253;28;8970;-59
2023/03/22 08:20:02;;;;;;;;;5.50;5.50;;;;;13.52;68.27;99058.47;5109775;28;8933;-60
2023/03/22 08:22:29;;;;;;;;;2.50;2.50;;;;;13.64;68.77;99063.38;5110309;28;8909;-60
2023/03/22 08:24:57;;;;;;;;;6.25;6.00;;;;;13.70;67.88;99067.22;5111256;28;9595;-59
2023/03/22 08:27:26;;;;;;;;;4.00;4.00;;;;;13.72;67.73;99059.84;5109783;28;8854;-61
2023/03/22 08:29:54;;;;;;;;;7.00;6.00;;;;;13.79;67.60;99064.41;5111353;28;9521;-60
2023/03/22 08:32:21;;;;;;;;;4.00;4.00;;;;;13.83;67.59;99059.56;5111447;28;8859;-61
2023/03/22 08:34:49;;;;;;;;;6.33;6.00;;;;;13.75;67.54;99068.41;5111513;28;8858;-60
2023/03/22 08:37:19;;;;;;;;;5.50;5.50;;;;;13.63;67.94;99056.34;5112314;28;8962;-59
2023/03/22 08:39:46;;;;;;;;;3.75;3.00;;;;;13.53;67.53;99060.97;5112651;28;8856;-59
2023/03/22 08:42:15;;;;;;;;;6.50;6.00;;;;;13.49;67.75;99080.19;5112203;28;8827;-59
2023/03/22 08:44:43;;;;;;;;;3.00;3.00;;;;;13.50;67.93;99063.13;5112006;28;8836;-59
2023/03/22 08:47:12;;;;;;;;;6.75;5.50;;;;;13.54;67.79;99062.66;5112566;28;8835;-62
2023/03/22 08:49:40;;;;;;;;;4.00;3.25;;;;;13.61;67.57;99062.84;5112377;28;8875;-59
2023/03/22 08:52:08;;;;;;;;;6.25;5.00;;;;;13.77;67.40;99076.28;5110823;28;8840;-60
2023/03/22 08:54:37;;;;;;;;;3.25;3.25;;;;;13.93;66.42;99055.75;5112347;28;8953;-61
2023/03/22 08:57:08;;;;;;;;;3.00;3.00;;;;;14.00;65.99;99055.91;5111857;28;8832;-60
2023/03/22 08:59:36;;;;;;;;;4.00;4.00;;;;;14.04;66.66;99063.44;5111874;28;8844;-60
2023/03/22 09:02:04;;;;;;;;;4.00;4.00;;;;;14.21;66.36;99075.06;5110981;28;8852;-59
2023/03/22 09:04:32;;;;;;;;;3.00;3.00;;;;;14.27;66.06;99071.72;5111643;28;8867;-59
2023/03/22 09:07:00;;;;;;;;;3.25;3.25;;;;;14.21;66.03;99072.38;5111811;28;8831;-61
2023/03/22 09:09:28;;;;;;;;;1.00;1.00;;;;;14.11;66.03;99075.16;5112020;28;8991;-60
2023/03/22 09:11:56;;;;;;;;;4.00;3.25;;;;;14.06;66.17;99076.66;5112074;28;8950;-58
2023/03/22 09:14:24;;;;;;;;;3.00;3.00;;;;;14.07;66.54;99073.84;5111472;28;8986;-59
2023/03/22 09:16:52;;;;;;;;;3.00;3.00;;;;;14.10;65.79;99069.97;5112585;28;8919;-61
2023/03/22 09:19:20;;;;;;;;;4.00;4.00;;;;;14.17;66.02;99068.31;5111041;28;8860;-60
2023/03/22 09:21:48;;;;;;;;;4.00;4.00;;;;;14.14;66.01;99071.31;5111421;28;8871;-61
2023/03/22 09:24:17;;;;;;;;;4.00;4.00;;;;;14.24;65.51;99061.31;5112525;28;8832;-61
2023/03/22 09:26:44;;;;;;;;;3.00;3.00;;;;;14.39;65.66;99052.47;5111815;28;9516;-59
2023/03/22 09:29:12;;;;;;;;;3.75;3.00;;;;;14.58;64.34;99053.97;5111803;28;8869;-60
2023/03/22 09:31:40;;;;;;;;;3.00;3.00;;;;;14.64;64.26;99050.59;5111934;28;8843;-60
2023/03/22 09:34:08;;;;;;;;;3.00;2.00;;;;;14.60;64.49;99051.94;5111182;28;8836;-59
2023/03/22 09:36:36;;;;;;;;;3.50;3.50;;;;;14.64;64.55;99050.59;5112864;28;8847;-61
2023/03/22 09:39:06;;;;;;;;;2.50;2.50;;;;;14.70;64.01;99047.22;5113278;28;8827;-59
2023/03/22 09:41:34;;;;;;;;;5.00;5.00;;;;;14.79;63.34;99044.38;5113150;28;8946;-59
2023/03/22 09:44:02;;;;;;;;;4.00;3.75;;;;;14.95;63.91;99040.81;5112249;28;8840;-59
2023/03/22 09:46:30;;;;;;;;;2.00;2.00;;;;;15.04;63.48;99048.69;5112414;28;8862;-59
2023/03/22 09:48:57;;;;;;;;;3.25;3.00;;;;;15.12;62.64;99043.31;5111799;28;8851;-60
2023/03/22 09:51:25;;;;;;;;;6.75;6.50;;;;;15.17;62.42;99048.97;5110637;28;8865;-59
2023/03/22 09:53:53;;;;;;;;;4.50;4.00;;;;;15.19;62.42;99040.75;5111514;28;9513;-59
2023/03/22 09:56:21;;;;;;;;;1.00;1.00;;;;;15.21;62.74;99044.09;5112454;28;8847;-59
2023/03/22 09:58:49;;;;;;;;;3.00;3.00;;;;;15.37;61.51;99026.13;5112938;28;8955;-59
2023/03/22 10:01:17;;;;;;;;;4.00;4.00;;;;;15.55;60.85;99028.56;5112042;28;8823;-62
2023/03/22 10:03:47;;;;;;;;;6.25;5.50;;;;;15.58;60.28;99021.00;5111340;28;8843;-61
2023/03/22 10:06:15;;;;;;;;;4.50;4.50;;;;;15.77;60.05;99014.34;5114887;28;8827;-62
2023/03/22 10:08:43;;;;;;;;;4.00;4.00;;;;;16.02;58.53;99019.38;5114820;28;8893;-59
2023/03/22 10:11:11;;;;;;;;;2.50;2.50;;;;;16.04;58.32;99016.50;5114184;28;8839;-61
2023/03/22 10:13:39;;;;;;;;;1.50;1.50;;;;;15.95;58.36;99005.00;5115407;28;8920;-59
2023/03/22 10:16:07;;;;;;;;;6.00;4.00;;;;;15.83;57.62;99003.72;5114458;28;8838;-62
2023/03/22 10:18:35;;;;;;;;;4.00;4.00;;;;;15.75;58.49;99016.34;5113858;28;8844;-61
2023/03/22 10:21:03;;;;;;;;;5.00;4.00;;;;;15.66;59.02;99029.00;5114690;28;8839;-59
2023/03/22 10:23:31;;;;;;;;;2.50;2.50;;;;;15.69;58.48;99006.34;5115529;28;8839;-61
2023/03/22 10:25:59;;;;;;;;;3.00;3.00;;;;;15.74;58.18;99012.84;5114308;28;8864;-60
2023/03/22 10:28:28;;;;;;;;;3.00;3.00;;;;;15.75;58.46;99021.72;5114884;28;8863;-59
2023/03/22 10:30:56;;;;;;;;;3.00;3.00;;;;;15.80;58.13;99016.66;5116304;28;8890;-59
2023/03/22 10:33:23;;;;;;;;;3.00;3.00;;;;;15.99;57.71;99013.53;5115665;28;8847;-60
2023/03/22 10:35:52;;;;;;;;;0.00;0.00;;;;;16.21;57.16;99008.13;5115232;28;8877;-59
2023/03/22 10:38:20;;;;;;;;;3.00;1.80;;;;;16.48;56.41;99005.72;5113801;28;9002;-59
2023/03/22 10:40:48;;;;;;;;;3.20;3.20;;;;;16.97;55.33;98998.84;5112838;28;8918;-59
2023/03/22 10:43:16;;;;;;;;;1.00;1.00;;;;;17.30;55.21;99008.19;5111415;28;8841;-59
2023/03/22 10:45:44;;;;;;;;;1.00;1.00;;;;;17.37;55.27;99021.75;5112396;28;8832;-62
2023/03/22 10:48:11;;;;;;;;;1.00;1.00;;;;;17.30;54.87;99016.28;5112536;28;8866;-60
2023/03/22 10:50:40;;;;;;;;;3.00;2.60;;;;;17.12;55.97;99023.06;5112876;28;8848;-62
2023/03/22 10:53:08;;;;;;;;;0.00;0.00;;;;;17.00;55.91;99030.75;5113078;28;9146;-61
2023/03/22 10:55:36;;;;;;;;;0.00;0.00;;;;;16.98;55.23;99031.94;5113624;28;8841;-60
2023/03/22 10:58:05;;;;;;;;;0.00;0.00;;;;;16.91;55.79;99017.56;5114498;28;8873;-60
2023/03/22 11:00:33;;;;;;;;;1.80;1.80;;;;;17.03;55.64;99027.72;5114058;28;9532;-60
2023/03/22 11:03:07;;;;;;;;;3.00;3.00;;;;;17.25;54.44;99020.56;5112645;28;8851;-62
2023/03/22 11:05:35;;;;;;;;;1.00;1.00;;;;;17.46;54.63;99026.88;5113886;28;8828;-60
2023/03/22 11:08:03;;;;;;;;;1.00;1.00;;;;;17.55;54.13;99039.19;5114000;28;8941;-59
2023/03/22 11:10:31;;;;;;;;;0.80;0.80;;;;;17.35;54.91;99039.94;5113724;28;8831;-60
2023/03/22 11:13:00;;;;;;;;;0.00;0.00;;;;;17.12;55.17;99044.56;5113805;28;8832;-61
2023/03/22 11:15:29;;;;;;;;;1.00;1.00;;;;;17.09;54.73;99050.34;5113277;28;8824;-60
2023/03/22 11:17:57;;;;;;;;;0.00;0.00;;;;;17.01;54.96;99035.09;5113505;28;8848;-60
2023/03/22 11:20:25;;;;;;;;;1.00;1.00;;;;;17.03;54.26;99030.41;5114066;28;8848;-61
2023/03/22 11:22:55;;;;;;;;;0.40;0.40;;;;;17.08;53.79;99036.03;5113440;28;8827;-60
2023/03/22 11:25:23;;;;;;;;;1.40;1.40;;;;;17.08;54.33;99036.03;5113719;28;8827;-59
2023/03/22 11:27:51;;;;;;;;;3.00;3.00;;;;;17.12;53.70;99031.13;5113580;28;8828;-61
2023/03/22 11:30:20;;;;;;;;;3.00;3.00;;;;;17.20;53.09;99029.19;5113445;28;8840;-60
2023/03/22 11:32:48;;;;;;;;;1.00;1.00;;;;;17.40;53.13;99029.47;5114283;28;8843;-60
2023/03/22 11:35:17;;;;;;;;;2.20;2.20;;;;;17.51;52.41;99034.38;5114611;28;8874;-60
2023/03/22 11:37:45;;;;;;;;;3.00;3.00;;;;;17.66;52.98;99037.88;5113296;28;8858;-59
2023/03/22 11:40:14;;;;;;;;;0.40;0.40;;;;;17.96;51.71;99029.53;5114068;28;8847;-59
2023/03/22 11:42:42;;;;;;;;;1.00;1.00;;;;;18.37;51.01;99030.59;5113976;28;8866;-60